createdAt,value
2023-01-10T00:01:56.842Z,32.90
2023-01-10T00:04:27.007Z,29.75
2023-01-10T00:06:55.024Z,29.67
2023-01-10T00:09:23.081Z,29.35
2023-01-10T00:12:09.631Z,26.75
2023-01-10T00:14:37.518Z,30.85
2023-01-10T00:17:05.528Z,25.20
2023-01-10T00:19:34.115Z,34.15
2023-01-10T00:22:09.174Z,23.55
2023-01-10T00:24:37.491Z,28.30
2023-01-10T00:27:05.546Z,27.58
2023-01-10T00:29:35.420Z,24.08
2023-01-10T00:32:03.415Z,24.00
2023-01-10T00:34:33.051Z,21.48
2023-01-10T00:37:01.790Z,20.30
2023-01-10T00:39:30.022Z,19.98
2023-01-10T00:42:16.265Z,24.77
2023-01-10T00:44:46.907Z,28.27
2023-01-10T00:47:16.042Z,25.27
2023-01-10T00:49:44.471Z,14.65
2023-01-10T00:52:12.638Z,17.20
2023-01-10T00:54:40.552Z,20.17
2023-01-10T00:57:08.527Z,19.75
2023-01-10T00:59:37.128Z,19.88
2023-01-10T01:02:05.416Z,18.38
2023-01-10T01:04:34.623Z,22.02
2023-01-10T01:07:02.857Z,18.00
2023-01-10T01:09:31.475Z,16.88
2023-01-10T01:12:00.006Z,17.55
2023-01-10T01:14:28.434Z,22.00
2023-01-10T01:16:58.057Z,20.98
2023-01-10T01:19:26.148Z,19.05
2023-01-10T01:21:54.539Z,22.95
2023-01-10T01:24:24.503Z,26.52
2023-01-10T01:26:52.631Z,26.77
2023-01-10T01:29:20.702Z,23.65
2023-01-10T01:31:48.661Z,24.40
2023-01-10T01:34:16.720Z,20.05
2023-01-10T01:36:45.302Z,23.75
2023-01-10T01:39:13.635Z,21.83
2023-01-10T01:42:00.403Z,25.08
2023-01-10T01:44:34.249Z,24.20
2023-01-10T01:47:27.813Z,23.15
2023-01-10T01:49:56.680Z,22.75
2023-01-10T01:52:29.592Z,16.67
2023-01-10T01:54:59.843Z,19.73
2023-01-10T01:57:31.861Z,23.00
2023-01-10T02:00:02.359Z,24.38
2023-01-10T02:03:01.781Z,24.20
2023-01-10T02:05:33.469Z,15.65
2023-01-10T02:08:02.533Z,14.20
2023-01-10T02:10:39.056Z,19.45
2023-01-10T02:13:10.439Z,17.08
2023-01-10T02:15:38.312Z,14.45
2023-01-10T02:18:06.984Z,20.95
2023-01-10T02:21:04.943Z,18.75
2023-01-10T02:23:36.235Z,11.98
2023-01-10T02:26:15.835Z,16.55
2023-01-10T02:29:08.415Z,18.27
2023-01-10T02:32:43.971Z,17.13
2023-01-10T02:35:27.341Z,25.17
2023-01-10T02:37:58.345Z,16.17
2023-01-10T02:40:44.510Z,16.80
2023-01-10T02:43:18.627Z,19.23
2023-01-10T02:45:59.619Z,18.83
2023-01-10T02:48:27.613Z,19.05
2023-01-10T02:51:18.423Z,24.10
2023-01-10T02:54:12.894Z,23.52
2023-01-10T02:56:49.974Z,19.42
2023-01-10T02:59:49.428Z,18.80
2023-01-10T03:02:47.741Z,22.77
2023-01-10T03:05:26.054Z,14.15
2023-01-10T03:08:03.323Z,19.98
2023-01-10T03:11:03.521Z,12.98
2023-01-10T03:13:53.280Z,25.85
2023-01-10T03:16:26.805Z,13.77
2023-01-10T03:18:56.975Z,21.30
2023-01-10T03:21:26.499Z,15.88
2023-01-10T03:24:01.086Z,15.27
2023-01-10T03:26:47.559Z,17.58
2023-01-10T03:29:22.971Z,17.42
2023-01-10T03:32:00.923Z,19.50
2023-01-10T03:34:29.438Z,22.17
2023-01-10T03:37:12.898Z,16.90
2023-01-10T03:39:51.187Z,11.20
2023-01-10T03:42:50.222Z,13.73
2023-01-10T03:45:26.999Z,15.57
2023-01-10T03:47:58.305Z,23.73
2023-01-10T03:50:28.662Z,13.90
2023-01-10T03:52:57.973Z,15.32
2023-01-10T03:55:29.089Z,15.60
2023-01-10T03:57:57.721Z,27.40
2023-01-10T04:00:26.356Z,15.73
2023-01-10T04:02:54.597Z,12.43
2023-01-10T04:05:22.555Z,15.27
2023-01-10T04:07:50.671Z,17.40
2023-01-10T04:10:18.658Z,18.45
2023-01-10T04:12:46.716Z,20.42
2023-01-10T04:15:15.471Z,14.77
2023-01-10T04:17:44.301Z,20.67
2023-01-10T04:20:13.390Z,21.63
2023-01-10T04:22:41.862Z,14.60
2023-01-10T04:25:09.954Z,13.40
2023-01-10T04:27:38.136Z,14.98
2023-01-10T04:30:07.457Z,14.60
2023-01-10T04:32:35.875Z,13.77
2023-01-10T04:35:04.583Z,16.08
2023-01-10T04:37:32.629Z,12.85
2023-01-10T04:40:00.995Z,12.20
2023-01-10T04:42:29.121Z,12.63
2023-01-10T04:44:57.223Z,14.88
2023-01-10T04:47:25.731Z,22.58
2023-01-10T04:49:53.755Z,16.90
2023-01-10T04:52:23.084Z,12.25
2023-01-10T04:54:51.096Z,15.82
2023-01-10T04:57:19.683Z,14.43
2023-01-10T04:59:48.075Z,16.45
2023-01-10T05:02:17.027Z,13.98
2023-01-10T05:04:45.233Z,15.77
2023-01-10T05:07:13.807Z,12.65
2023-01-10T05:09:42.943Z,11.55
2023-01-10T05:12:11.009Z,15.30
2023-01-10T05:14:39.970Z,13.60
2023-01-10T05:17:08.476Z,16.25
2023-01-10T05:19:36.800Z,17.73
2023-01-10T05:22:04.797Z,23.02
2023-01-10T05:24:33.038Z,13.85
2023-01-10T05:27:01.018Z,17.05
2023-01-10T05:29:29.017Z,20.00
2023-01-10T05:31:57.956Z,20.77
2023-01-10T05:34:26.187Z,18.60
2023-01-10T05:36:54.665Z,21.17
2023-01-10T05:39:23.209Z,20.10
2023-01-10T05:41:51.741Z,18.17
2023-01-10T05:44:20.363Z,20.38
2023-01-10T05:46:48.293Z,16.02
2023-01-10T05:49:16.205Z,17.08
2023-01-10T05:51:44.473Z,17.52
2023-01-10T05:54:12.684Z,19.42
2023-01-10T05:56:40.697Z,18.65
2023-01-10T05:59:17.215Z,22.60
2023-01-10T06:01:55.643Z,19.35
2023-01-10T06:04:24.653Z,22.83
2023-01-10T06:06:52.961Z,20.30
2023-01-10T06:09:20.990Z,23.35
2023-01-10T06:11:48.918Z,17.92
2023-01-10T06:14:19.599Z,24.17
2023-01-10T06:16:48.722Z,21.77
2023-01-10T06:19:17.847Z,19.20
2023-01-10T06:21:46.241Z,25.27
2023-01-10T06:24:14.242Z,20.67
2023-01-10T06:26:42.393Z,21.13
2023-01-10T06:29:10.499Z,21.98
2023-01-10T06:31:38.634Z,21.48
2023-01-10T06:34:06.685Z,22.13
2023-01-10T06:36:35.193Z,14.75
2023-01-10T06:39:04.352Z,17.95
2023-01-10T06:41:32.764Z,20.70
2023-01-10T06:44:00.779Z,23.50
2023-01-10T06:46:28.744Z,25.73
2023-01-10T06:48:56.702Z,21.58
2023-01-10T06:51:25.257Z,16.92
2023-01-10T06:53:53.822Z,20.90
2023-01-10T06:56:21.894Z,16.80
2023-01-10T06:58:50.956Z,18.20
2023-01-10T07:01:21.985Z,21.75
2023-01-10T07:03:51.402Z,22.27
2023-01-10T07:06:19.452Z,21.45
2023-01-10T07:08:48.279Z,19.58
2023-01-10T07:11:17.835Z,21.10
2023-01-10T07:13:45.847Z,19.17
2023-01-10T07:16:16.840Z,19.55
2023-01-10T07:18:45.304Z,22.70
2023-01-10T07:21:14.011Z,24.10
2023-01-10T07:23:41.935Z,21.67
2023-01-10T07:26:11.817Z,20.13
2023-01-10T07:28:40.316Z,15.63
2023-01-10T07:31:08.774Z,14.63
2023-01-10T07:33:36.843Z,13.20
2023-01-10T07:36:05.428Z,10.23
2023-01-10T07:38:33.785Z,15.05
2023-01-10T07:41:04.037Z,16.85
2023-01-10T07:43:32.860Z,12.20
2023-01-10T07:46:03.147Z,13.20
2023-01-10T07:48:31.763Z,12.20
2023-01-10T07:51:01.662Z,21.75
2023-01-10T07:53:30.251Z,21.13
2023-01-10T07:56:03.497Z,12.73
2023-01-10T08:01:26.188Z,14.00
2023-01-10T08:03:54.506Z,11.20
2023-01-10T08:06:22.562Z,7.78
2023-01-10T08:08:50.989Z,16.10
2023-01-10T08:11:19.575Z,10.23
2023-01-10T08:13:47.687Z,9.43
2023-01-10T08:16:15.920Z,15.18
2023-01-10T08:18:43.911Z,17.27
2023-01-10T08:21:11.896Z,17.80
2023-01-10T08:23:40.940Z,20.48
2023-01-10T08:26:08.990Z,25.70
2023-01-10T08:28:37.188Z,24.70
2023-01-10T08:31:09.685Z,24.58
2023-01-10T08:33:39.769Z,20.23
2023-01-10T08:36:16.031Z,23.20
2023-01-10T08:38:44.735Z,19.10
2023-01-10T08:41:13.769Z,19.38
2023-01-10T08:43:41.761Z,17.20
2023-01-10T08:46:09.785Z,15.50
2023-01-10T08:48:38.079Z,18.73
2023-01-10T08:51:10.683Z,8.02
2023-01-10T08:53:40.940Z,11.40
2023-01-10T08:56:36.753Z,11.20
2023-01-10T08:59:05.444Z,9.27
2023-01-10T09:01:34.055Z,12.45
2023-01-10T09:04:03.243Z,11.32
2023-01-10T09:06:31.480Z,10.30
2023-01-10T09:08:59.456Z,2.20
2023-01-10T09:11:27.730Z,3.25
2023-01-10T09:13:55.857Z,1.40
2023-01-10T09:16:24.198Z,1.52
2023-01-10T09:18:52.843Z,1.85
2023-01-10T09:21:20.817Z,1.80
2023-01-10T09:23:48.860Z,2.30
2023-01-10T09:26:17.594Z,2.38
2023-01-10T09:28:48.053Z,2.50
2023-01-10T09:31:17.439Z,1.90
2023-01-10T09:33:47.726Z,2.67
2023-01-10T09:36:16.358Z,1.13
2023-01-10T09:38:44.915Z,2.03
2023-01-10T09:41:46.460Z,4.07
2023-01-10T09:44:29.739Z,2.40
2023-01-10T09:47:21.234Z,0.60
2023-01-10T09:50:29.607Z,1.83
2023-01-10T09:53:05.422Z,1.65
2023-01-10T09:55:38.183Z,0.88
2023-01-10T09:58:56.996Z,2.15
2023-01-10T10:01:36.677Z,2.72
2023-01-10T10:04:27.569Z,3.47
2023-01-10T10:06:57.080Z,2.10
2023-01-10T10:09:31.928Z,3.13
2023-01-10T10:12:37.043Z,1.77
2023-01-10T10:15:35.492Z,1.75
2023-01-10T10:18:17.434Z,3.70
2023-01-10T10:21:01.909Z,2.08
2023-01-10T10:23:41.953Z,3.40
2023-01-10T10:26:17.623Z,2.40
2023-01-10T10:28:53.921Z,1.52
2023-01-10T10:31:41.678Z,1.70
2023-01-10T10:34:25.050Z,2.20
2023-01-10T10:36:57.651Z,1.63
2023-01-10T10:39:51.408Z,1.77
2023-01-10T10:42:20.793Z,2.75
2023-01-10T10:44:56.485Z,1.30
2023-01-10T10:47:27.646Z,1.77
2023-01-10T10:50:17.250Z,2.70
2023-01-10T10:52:46.832Z,2.13
2023-01-10T10:55:17.959Z,0.63
2023-01-10T10:57:59.469Z,2.33
2023-01-10T11:00:30.179Z,0.73
2023-01-10T11:03:13.737Z,1.63
2023-01-10T11:05:45.923Z,0.47
2023-01-10T11:08:17.415Z,0.80
2023-01-10T11:10:54.133Z,1.05
2023-01-10T11:13:34.231Z,1.98
2023-01-10T11:16:05.216Z,1.05
2023-01-10T11:18:34.066Z,2.08
2023-01-10T11:21:19.645Z,2.55
2023-01-10T11:23:56.900Z,1.20
2023-01-10T11:26:39.411Z,1.98
2023-01-10T11:29:17.180Z,1.38
2023-01-10T11:31:46.863Z,2.20
2023-01-10T11:34:27.260Z,1.67
2023-01-10T11:36:57.118Z,1.83
2023-01-10T11:39:26.438Z,1.17
2023-01-10T11:41:58.330Z,1.15
2023-01-10T11:44:30.028Z,2.25
2023-01-10T11:47:03.937Z,2.17
2023-01-10T11:49:40.237Z,1.73
2023-01-10T11:52:30.214Z,1.73
2023-01-10T11:55:00.698Z,0.80
2023-01-10T11:57:31.924Z,2.50
2023-01-10T12:00:04.285Z,3.40
2023-01-10T12:02:43.827Z,1.63
2023-01-10T12:05:20.553Z,2.20
2023-01-10T12:08:25.943Z,2.03
2023-01-10T12:11:17.160Z,1.27
2023-01-10T12:13:51.377Z,1.45
2023-01-10T12:16:30.044Z,0.73
2023-01-10T12:19:04.720Z,2.72
2023-01-10T12:21:51.917Z,0.98
2023-01-10T12:24:28.378Z,1.95
2023-01-10T12:26:57.819Z,2.67
2023-01-10T12:29:35.073Z,1.00
2023-01-10T12:32:07.219Z,2.33
2023-01-10T12:34:47.314Z,2.30
2023-01-10T12:37:32.570Z,7.95
2023-01-10T12:40:25.120Z,5.05
2023-01-10T12:43:16.674Z,3.85
2023-01-10T12:45:53.662Z,2.78
2023-01-10T12:48:44.995Z,1.73
2023-01-10T12:51:19.129Z,1.00
2023-01-10T12:54:02.145Z,3.40
2023-01-10T12:56:31.633Z,2.25
2023-01-10T12:59:36.034Z,3.00
2023-01-10T13:02:11.113Z,1.92
2023-01-10T13:04:41.655Z,2.25
2023-01-10T13:07:15.962Z,1.52
2023-01-10T13:09:45.921Z,0.73
2023-01-10T13:12:20.591Z,2.83
2023-01-10T13:15:03.729Z,0.93
2023-01-10T13:17:40.437Z,1.58
2023-01-10T13:20:23.715Z,1.05
2023-01-10T13:22:55.891Z,6.00
2023-01-10T13:25:23.863Z,2.05
2023-01-10T13:28:21.463Z,10.50
2023-01-10T13:31:01.642Z,1.58
2023-01-10T13:33:31.317Z,4.30
2023-01-10T13:36:17.683Z,1.33
2023-01-10T13:38:50.089Z,2.80
2023-01-10T13:41:37.477Z,1.13
2023-01-10T13:44:13.357Z,1.70
2023-01-10T13:46:53.060Z,0.88
2023-01-10T13:49:37.997Z,3.40
2023-01-10T13:52:34.462Z,1.27
2023-01-10T13:55:22.852Z,3.95
2023-01-10T13:57:57.725Z,1.10
2023-01-10T14:01:09.392Z,1.60
2023-01-10T14:03:41.943Z,2.20
2023-01-10T14:06:27.707Z,3.23
2023-01-10T14:09:02.236Z,3.70
2023-01-10T14:11:48.939Z,2.00
2023-01-10T14:14:33.830Z,3.80
2023-01-10T14:17:21.128Z,2.03
2023-01-10T14:20:02.759Z,1.70
2023-01-10T14:22:37.292Z,3.08
2023-01-10T14:25:16.206Z,4.28
2023-01-10T14:27:47.197Z,3.17
2023-01-10T14:30:37.511Z,1.90
2023-01-10T14:33:22.716Z,3.83
2023-01-10T14:35:56.617Z,3.15
2023-01-10T14:38:33.997Z,1.00
2023-01-10T14:41:16.819Z,1.50
2023-01-10T14:44:14.049Z,1.70
2023-01-10T14:46:50.920Z,4.43
2023-01-10T14:49:36.593Z,2.00
2023-01-10T14:52:35.081Z,1.20
2023-01-10T14:55:13.434Z,2.70
2023-01-10T14:57:41.454Z,4.82
2023-01-10T15:00:15.083Z,7.32
2023-01-10T15:02:49.227Z,6.60
2023-01-10T15:05:28.417Z,4.07
2023-01-10T15:08:17.220Z,3.35
2023-01-10T15:10:48.300Z,7.53
2023-01-10T15:13:19.088Z,5.55
2023-01-10T15:15:50.270Z,5.95
2023-01-10T15:18:39.177Z,6.88
2023-01-10T15:21:07.790Z,6.40
2023-01-10T15:23:38.253Z,2.72
2023-01-10T15:26:15.089Z,4.68
2023-01-10T15:28:49.318Z,6.72
2023-01-10T15:31:17.680Z,4.30
2023-01-10T15:33:56.475Z,7.18
2023-01-10T15:36:28.272Z,7.22
2023-01-10T15:38:57.061Z,53.38
2023-01-10T15:41:25.190Z,7.80
2023-01-10T15:43:55.693Z,3.05
2023-01-10T15:46:26.937Z,2.85
2023-01-10T15:49:03.119Z,7.55
2023-01-10T15:51:35.543Z,15.15
2023-01-10T15:54:07.374Z,16.02
2023-01-10T15:56:42.030Z,15.95
2023-01-10T15:59:30.374Z,16.73
2023-01-10T16:02:17.903Z,23.67
2023-01-10T16:04:47.362Z,18.35
2023-01-10T16:07:42.564Z,22.70
2023-01-10T16:10:23.352Z,9.57
2023-01-10T16:13:10.775Z,16.17
2023-01-10T16:15:44.818Z,21.45
2023-01-10T16:18:13.096Z,13.98
2023-01-10T16:20:47.477Z,17.70
2023-01-10T16:23:22.137Z,31.85
2023-01-10T16:25:55.556Z,43.15
2023-01-10T16:28:48.947Z,42.22
2023-01-10T16:31:17.950Z,31.58
2023-01-10T16:33:46.253Z,65.35
2023-01-10T16:36:21.117Z,39.78
2023-01-10T16:38:50.126Z,29.15
2023-01-10T16:41:37.030Z,38.97
2023-01-10T16:44:05.222Z,20.35
2023-01-10T16:46:33.168Z,11.85
2023-01-10T16:49:02.823Z,11.80
2023-01-10T16:51:32.863Z,12.23
2023-01-10T16:54:01.536Z,15.93
2023-01-10T16:56:31.076Z,17.33
2023-01-10T16:58:59.267Z,18.92
2023-01-10T17:01:31.654Z,25.77
2023-01-10T17:04:00.504Z,22.77
2023-01-10T17:06:28.937Z,23.20
2023-01-10T17:08:57.365Z,19.90
2023-01-10T17:11:35.998Z,19.42
2023-01-10T17:14:05.502Z,20.80
2023-01-10T17:16:35.256Z,23.10
2023-01-10T17:19:04.314Z,20.15
2023-01-10T17:21:32.826Z,32.70
2023-01-10T17:24:00.863Z,34.65
2023-01-10T17:26:29.734Z,21.33
2023-01-10T17:28:58.957Z,12.18
2023-01-10T17:31:27.414Z,16.15
2023-01-10T17:33:55.408Z,19.60
2023-01-10T17:36:28.908Z,16.45
2023-01-10T17:38:57.186Z,14.50
2023-01-10T17:41:25.832Z,19.50
2023-01-10T17:43:55.451Z,24.20
2023-01-10T17:46:24.002Z,20.30
2023-01-10T17:48:52.400Z,21.88
2023-01-10T17:51:46.126Z,40.80
2023-01-10T17:54:15.291Z,32.05
2023-01-10T17:56:43.195Z,33.70
2023-01-10T17:59:11.118Z,71.18
2023-01-10T18:01:39.090Z,42.75
2023-01-10T18:04:08.405Z,55.50
2023-01-10T18:06:36.540Z,42.15
2023-01-10T18:09:04.843Z,48.75
2023-01-10T18:11:34.051Z,39.00
2023-01-10T18:14:21.968Z,35.58
2023-01-10T18:16:50.064Z,25.85
2023-01-10T18:19:18.140Z,44.28
2023-01-10T18:21:47.467Z,38.65
2023-01-10T18:24:15.755Z,29.95
2023-01-10T18:26:43.762Z,37.97
2023-01-10T18:29:11.772Z,41.58
2023-01-10T18:31:41.527Z,37.55
2023-01-10T18:34:09.755Z,33.42
2023-01-10T18:36:40.153Z,25.70
2023-01-10T18:39:08.577Z,55.38
2023-01-10T18:41:36.508Z,74.72
2023-01-10T18:44:04.643Z,58.05
2023-01-10T18:46:32.745Z,48.08
2023-01-10T18:49:00.812Z,39.33
2023-01-10T18:51:28.817Z,36.75
2023-01-10T18:53:57.384Z,95.35
2023-01-10T18:56:25.292Z,44.40
2023-01-10T18:58:53.276Z,42.45
2023-01-10T19:01:22.450Z,40.25
2023-01-10T19:03:51.013Z,36.70
2023-01-10T19:06:44.432Z,41.38
2023-01-10T19:09:14.589Z,46.65
2023-01-10T19:11:42.520Z,43.85
2023-01-10T19:14:10.970Z,46.67
2023-01-10T19:16:38.911Z,46.22
2023-01-10T19:19:11.238Z,31.63
2023-01-10T19:21:40.209Z,73.13
2023-01-10T19:24:27.601Z,35.83
2023-01-10T19:26:56.622Z,53.13
2023-01-10T19:29:25.612Z,48.42
2023-01-10T19:31:53.853Z,29.17
2023-01-10T19:34:47.211Z,30.70
2023-01-10T19:37:15.622Z,34.30
2023-01-10T19:39:44.178Z,33.28
2023-01-10T19:42:12.267Z,35.65
2023-01-10T19:44:40.306Z,34.50
2023-01-10T19:47:08.459Z,40.92
2023-01-10T19:49:39.158Z,48.20
2023-01-10T19:52:07.561Z,32.33
2023-01-10T19:54:37.210Z,29.95
2023-01-10T19:57:07.700Z,26.85
2023-01-10T19:59:36.702Z,45.00
2023-01-10T20:02:05.730Z,41.78
2023-01-10T20:04:58.423Z,35.60
2023-01-10T20:07:27.207Z,38.20
2023-01-10T20:09:58.747Z,36.50
2023-01-10T20:12:27.029Z,34.47
2023-01-10T20:14:54.987Z,36.72
2023-01-10T20:17:23.455Z,35.38
2023-01-10T20:19:52.138Z,43.47
2023-01-10T20:22:20.094Z,38.17
2023-01-10T20:24:48.436Z,38.90
2023-01-10T20:27:19.542Z,41.13
2023-01-10T20:29:47.564Z,38.35
2023-01-10T20:32:16.007Z,47.47
2023-01-10T20:34:44.843Z,40.33
2023-01-10T20:37:14.335Z,38.08
2023-01-10T20:39:42.751Z,38.25
2023-01-10T20:42:10.705Z,41.55
2023-01-10T20:44:39.375Z,34.55
2023-01-10T20:47:07.441Z,39.85
2023-01-10T20:49:35.827Z,36.38
2023-01-10T20:52:03.970Z,28.17
2023-01-10T20:54:32.197Z,37.90
2023-01-10T20:57:00.454Z,38.50
2023-01-10T20:59:29.526Z,26.00
2023-01-10T21:01:57.946Z,22.77
2023-01-10T21:04:25.928Z,30.35
2023-01-10T21:06:54.262Z,21.95
2023-01-10T21:09:22.853Z,25.30
2023-01-10T21:12:04.152Z,28.40
2023-01-10T21:14:35.661Z,29.05
2023-01-10T21:17:03.670Z,23.15
2023-01-10T21:19:32.228Z,29.10
2023-01-10T21:22:00.386Z,27.65
2023-01-10T21:24:28.391Z,27.90
2023-01-10T21:26:56.408Z,34.00
2023-01-10T21:29:24.382Z,38.55
2023-01-10T21:31:53.533Z,36.42
2023-01-10T21:34:22.123Z,38.22
2023-01-10T21:36:50.199Z,29.52
2023-01-10T21:39:18.521Z,31.30
2023-01-10T21:42:05.063Z,27.65
2023-01-10T21:44:33.418Z,29.25
2023-01-10T21:47:01.922Z,57.83
2023-01-10T21:49:29.990Z,38.33
2023-01-10T21:51:58.139Z,32.35
2023-01-10T21:54:26.480Z,29.75
2023-01-10T21:56:54.840Z,28.88
2023-01-10T21:59:22.782Z,29.80
2023-01-10T22:01:51.603Z,22.92
2023-01-10T22:04:19.812Z,18.50
2023-01-10T22:06:48.022Z,30.40
2023-01-10T22:09:16.075Z,22.83
2023-01-10T22:11:43.991Z,34.28
2023-01-10T22:14:13.263Z,22.83
2023-01-10T22:16:41.250Z,20.63
2023-01-10T22:19:09.272Z,29.67
2023-01-10T22:21:37.255Z,29.30
2023-01-10T22:24:06.396Z,26.52
2023-01-10T22:26:34.872Z,22.50
2023-01-10T22:29:02.905Z,40.45
2023-01-10T22:31:30.934Z,36.83
2023-01-10T22:33:59.184Z,30.25
2023-01-10T22:36:27.610Z,25.88
2023-01-10T22:38:55.578Z,41.83
2023-01-10T22:41:28.894Z,28.95
2023-01-10T22:46:25.509Z,31.45
2023-01-10T22:48:54.070Z,28.70
2023-01-10T22:51:23.574Z,95.20
2023-01-10T22:53:54.570Z,33.33
2023-01-10T22:56:24.626Z,32.47
2023-01-10T22:58:53.207Z,30.13
2023-01-10T23:01:23.058Z,32.15
2023-01-10T23:03:52.089Z,27.90
2023-01-10T23:06:20.403Z,27.15
2023-01-10T23:08:48.708Z,21.40
2023-01-10T23:11:19.177Z,22.52
2023-01-10T23:13:48.183Z,20.60
2023-01-10T23:16:22.528Z,18.88
2023-01-10T23:18:51.062Z,26.00
2023-01-10T23:21:19.126Z,23.25
2023-01-10T23:23:47.072Z,32.55
2023-01-10T23:26:14.965Z,14.35
2023-01-10T23:28:52.514Z,27.83
2023-01-10T23:31:23.071Z,24.92
2023-01-10T23:33:51.941Z,29.73
2023-01-10T23:36:22.617Z,23.10
2023-01-10T23:38:50.964Z,24.33
2023-01-10T23:41:21.286Z,53.30
2023-01-10T23:43:50.605Z,31.90
2023-01-10T23:46:19.197Z,25.65
2023-01-10T23:48:48.552Z,26.10
2023-01-10T23:51:19.232Z,63.28
2023-01-10T23:53:47.595Z,23.60
2023-01-10T23:56:15.507Z,25.85
2023-01-10T23:58:43.933Z,24.17
